ADDS METAR Data INFO
IDs: Format: Raw Decoded Include TAF

Data at: 1132 UTC 29 May 2017

KSWW 291115Z AUTO 28003KT 10SM CLR 16/14 A3013 RMK AO2 T01560140
KSWW 291055Z AUTO 00000KT 10SM CLR 17/14 A3014 RMK AO2 T01660141
KSWW 291035Z AUTO 20003KT 10SM CLR 17/14 A3013 RMK AO2 T01660141
KSWW 291015Z AUTO 20004KT 10SM CLR 18/14 A3012 RMK AO2 T01750142
KSWW 290955Z AUTO 17003KT 10SM CLR 17/14 A3012 RMK AO2 T01680142
KSWW 290935Z AUTO 15003KT 10SM CLR 16/14 A3012 RMK AO2 T01640138
KSWW 290915Z AUTO 00000KT 10SM CLR 18/14 A3012 RMK AO2 T01800140
KSWW 290855Z AUTO 04003KT 10SM CLR 18/14 A3012 RMK AO2 T01800140
KSWW 290835Z AUTO 36003KT 10SM CLR 18/14 A3011 RMK AO2 T01770138
KSWW 290815Z AUTO 35003KT 10SM CLR 18/14 A3011 RMK AO2 T01750138
KSWW 290755Z AUTO 33004KT 10SM CLR 17/14 A3011 RMK AO2 T01730140
KSWW 290735Z AUTO 34004KT 10SM CLR 18/14 A3012 RMK AO2 T01780140
KSWW 290715Z AUTO 35003KT 10SM CLR 17/14 A3012 RMK AO2 T01730140
KSWW 290655Z AUTO 00000KT 10SM CLR 19/14 A3013 RMK AO2 T01900140
KSWW 290635Z AUTO 00000KT 10SM CLR 19/14 A3015 RMK AO2 T01870140
KSWW 290615Z AUTO 00000KT 10SM CLR 19/14 A3015 RMK AO2 T01850138
KSWW 290555Z AUTO 11004KT 10SM CLR 19/14 A3015 RMK AO2 T01910136 10255 20189 402770173
KSWW 290535Z AUTO 00000KT 10SM CLR 19/14 A3014 RMK AO2 T01920136
KSWW 290515Z AUTO 09004KT 10SM CLR 20/14 A3013 RMK AO2 T01960135
KSWW 290455Z AUTO 10004KT 10SM CLR 20/13 A3013 RMK AO2 LTG DSNT S T01950133
KSWW 290435Z AUTO 08003KT 10SM CLR 20/13 A3012 RMK AO2 T02000132
KSWW 290415Z AUTO 09003KT 10SM CLR 20/13 A3011 RMK AO2 T01960132
KSWW 290355Z AUTO 09006KT 10SM CLR 20/13 A3010 RMK AO2 T01950132
KSWW 290335Z AUTO 08005KT 10SM CLR 20/13 A3009 RMK AO2 T01970130
KSWW 290315Z AUTO 08006KT 10SM CLR 21/13 A3008 RMK AO2 T02050128
KSWW 290255Z AUTO 36005KT 10SM CLR 20/13 A3006 RMK AO2 LTG DSNT SE T02020131
KSWW 290235Z AUTO 35006KT 10SM CLR 21/13 A3006 RMK AO2 T02100131
KSWW 290215Z AUTO 34006KT 10SM CLR 22/13 A3005 RMK AO2 T02150130
KSWW 290155Z AUTO 36004KT 10SM CLR 22/13 A3005 RMK AO2 LTG DSNT SE T02220127
KSWW 290135Z AUTO 03004KT 10SM CLR 23/13 A3006 RMK AO2 T02290129
KSWW 290115Z AUTO 03004KT 10SM CLR 24/13 A3005 RMK AO2 T02400126
KSWW 290055Z AUTO 04006G09KT 10SM CLR 25/13 A3005 RMK AO2 T02470128
KSWW 290035Z AUTO 03009KT 10SM CLR 25/13 A3004 RMK AO2 T02510126
KSWW 290015Z AUTO 04012G16KT 10SM CLR 26/13 A3004 RMK AO2 LTG DSNT E T02550125
KSWW 282355Z AUTO 04010KT 10SM CLR 25/12 A3005 RMK AO2 LTG DSNT SE T02520121 10260 20229
KSWW 282335Z AUTO 02011KT 10SM CLR 26/12 A3004 RMK AO2 LTG DSNT SE AND S T02570122
KSWW 282315Z AUTO 03010G16KT 10SM VCTS CLR 25/12 A3005 RMK AO2 LTG DSNT SE AND S T02520120
KSWW 282255Z AUTO 03008KT 10SM VCTS CLR 26/12 A3005 RMK AO2 LTG DSNT E THRU SW T02590124
KSWW 282235Z AUTO 04008G14KT 10SM TS SCT037 SCT049 SCT090 24/12 A3006 RMK AO2 LTG DSNT SE AND S T02420123
KSWW 282215Z AUTO 03007G19KT 10SM CLR 25/12 A3007 RMK AO2 LTG DSNT SE THRU SW T02510119
KSWW 282155Z AUTO 02010G15KT 10SM CLR 25/12 A3006 RMK AO2 LTG DSNT S AND SW T02460121
KSWW 282135Z AUTO 02012G20KT 10SM CLR 24/11 A3006 RMK AO2 LTG DSNT E AND SW T02350112
KSWW 282115Z AUTO 04008KT 10SM TS CLR 24/11 A3010 RMK AO2 LTG DSNT E AND SE T02360112
KSWW 282055Z AUTO 03011KT 10SM TS CLR 24/11 A3010 RMK AO2 LTG DSNT SE THRU SW T02370109
KSWW 282035Z AUTO 04012G17KT 10SM TS SCT120 24/12 A3008 RMK AO2 LTG DSNT SE AND SW T02390119
KSWW 282015Z AUTO 06013G18KT 10SM CLR 25/12 A3010 RMK AO2 LTG DSNT E AND SW T02510115
KSWW 281955Z AUTO 05014KT 10SM CLR 26/11 A3010 RMK AO2 LTG DSNT SW T02580108
KSWW 281935Z AUTO 03013G22KT 10SM CLR 24/11 A3011 RMK AO2 LTG DSNT S AND SW T02430113
KSWW 281915Z AUTO 04016G22KT 10SM CLR 24/12 A3010 RMK AO2 LTG DSNT E T02440118
KSWW 281855Z AUTO 02012G17KT 10SM SCT110 24/13 A3011 RMK AO2 T02410129
KSWW 281835Z AUTO 01015G21KT 10SM CLR 24/12 A3012 RMK AO2 LTG DSNT E T02390123
KSWW 281815Z AUTO 02011G22KT 10SM CLR 24/12 A3012 RMK AO2 T02440121
KSWW 281755Z AUTO 02012G20KT 10SM CLR 25/12 A3013 RMK AO2 LTG DSNT SE T02450122 10246 20173
KSWW 281735Z AUTO 01014G17KT 10SM CLR 24/13 A3012 RMK AO2 T02410125
KSWW 281715Z AUTO 01013G19KT 10SM CLR 23/13 A3012 RMK AO2 T02330125
KSWW 281655Z AUTO 36015G22KT 10SM CLR 23/13 A3012 RMK AO2 T02270126
KSWW 281635Z AUTO 01013G22KT 10SM CLR 22/13 A3011 RMK AO2 T02240126
KSWW 281615Z AUTO 36016G23KT 10SM CLR 23/13 A3010 RMK AO2 T02280126
KSWW 281555Z AUTO 01013G22KT 10SM CLR 22/13 A3010 RMK AO2 T02210127
KSWW 281535Z AUTO 36015G22KT 10SM CLR 23/13 A3010 RMK AO2 T02260130
KSWW 281515Z AUTO 01015G24KT 10SM CLR 22/13 A3009 RMK AO2 T02160131
KSWW 281455Z AUTO 36019G24KT 10SM CLR 21/13 A3008 RMK AO2 T02110134
KSWW 281435Z AUTO 01019G24KT 10SM CLR 21/14 A3008 RMK AO2 T02050135
KSWW 281415Z AUTO 36016G24KT 10SM CLR 20/14 A3007 RMK AO2 T02010135
KSWW 281355Z AUTO 01018G25KT 10SM CLR 19/14 A3007 RMK AO2 T01930136
KSWW 281335Z AUTO 36018G25KT 10SM CLR 19/14 A3007 RMK AO2 T01880135
KSWW 281315Z AUTO 36016G21KT 10SM CLR 18/13 A3007 RMK AO2 T01820131
KSWW 281255Z AUTO 35017G22KT 10SM CLR 18/13 A3006 RMK AO2 T01800128
KSWW 281235Z AUTO 35015G21KT 10SM CLR 18/12 A3006 RMK AO2 T01760122
KSWW 281215Z AUTO 35014KT 10SM CLR 18/12 A3005 RMK AO2 T01750120
KSWW 281155Z AUTO 35012G17KT 10SM CLR 18/12 A3005 RMK AO2 T01750117 10277 20175
KSWW 281135Z AUTO 36011G17KT 10SM CLR 18/12 A3004 RMK AO2 T01750116
KSWW 281115Z AUTO 36013KT 10SM CLR 18/12 A3003 RMK AO2 T01800116
KSWW 281055Z AUTO 35015G18KT 10SM SCT024 19/12 A3003 RMK AO2 T01850116
KSWW 281035Z AUTO 36016G23KT 10SM SCT026 20/14 A3001 RMK AO2 T02020139
KSWW 281015Z AUTO 02013G25KT 10SM CLR 21/15 A3001 RMK AO2 LTG DSNT E T02070150
KSWW 280955Z AUTO 01014G22KT 10SM CLR 21/15 A3000 RMK AO2 T02110150
KSWW 280935Z AUTO 36014G22KT 10SM CLR 22/15 A2999 RMK AO2 T02160150
KSWW 280915Z AUTO 36019G24KT 10SM CLR 22/15 A2998 RMK AO2 T02200151
KSWW 280855Z AUTO 36016G24KT 10SM CLR 22/16 A2998 RMK AO2 T02240159
KSWW 280835Z AUTO 01013G21KT 10SM CLR 23/16 A2996 RMK AO2 T02270163
KSWW 280815Z AUTO 33010G21KT 10SM CLR 23/16 A2996 RMK AO2 T02340162
KSWW 280755Z AUTO 35013KT 10SM SCT050 24/16 A2995 RMK AO2 T02420158
KSWW 280735Z AUTO 34009G15KT 10SM SCT036 SCT044 SCT050 26/14 A2994 RMK AO2 T02590135
KSWW 280715Z AUTO 32016G19KT 10SM CLR 27/18 A2993 RMK AO2 T02700184
KSWW 280655Z AUTO 23010KT 10SM CLR 27/19 A2990 RMK AO2 T02700189
KSWW 280635Z AUTO 21012KT 10SM CLR 27/18 A2989 RMK AO2 T02710183
KSWW 280615Z AUTO 22010KT 10SM CLR 27/17 A2989 RMK AO2 T02720172
KSWW 280555Z AUTO 20010KT 10SM CLR 28/17 A2989 RMK AO2 T02760165 10362 20258 403770216
KSWW 280535Z AUTO 20010KT 10SM CLR 28/15 A2989 RMK AO2 T02760151
KSWW 280515Z AUTO 20010KT 10SM CLR 28/14 A2989 RMK AO2 T02770143
KSWW 280455Z AUTO 19013KT 10SM CLR 29/13 A2989 RMK AO2 T02850128
KSWW 280435Z AUTO 18008KT 10SM CLR 27/06 A2988 RMK AO2 T02720056
KSWW 280415Z AUTO 24007KT 10SM CLR 26/07 A2988 RMK AO2 T02590070
KSWW 280355Z AUTO 26007KT 10SM CLR 29/03 A2987 RMK AO2 T02880030
KSWW 280335Z AUTO 19007KT 10SM CLR 28/05 A2986 RMK AO2 T02830045
KSWW 280315Z AUTO 19008KT 10SM CLR 29/03 A2985 RMK AO2 T02940034
KSWW 280255Z AUTO 19008KT 10SM CLR 28/06 A2985 RMK AO2 T02770064
KSWW 280235Z AUTO 19007KT 10SM CLR 29/06 A2984 RMK AO2 T02930060
KSWW 280215Z AUTO 19006KT 10SM CLR 30/06 A2984 RMK AO2 T03040055
KSWW 280155Z AUTO 19005KT 10SM CLR 31/04 A2984 RMK AO2 T03080040
KSWW 280135Z AUTO 21005KT 10SM CLR 32/03 A2983 RMK AO2 T03240028
KSWW 280115Z AUTO 22005KT 10SM CLR 33/03 A2983 RMK AO2 T03290029
KSWW 280055Z AUTO 22005KT 10SM CLR 34/03 A2982 RMK AO2 T03390029
KSWW 280035Z AUTO 24007G14KT 10SM CLR 35/02 A2982 RMK AO2 T03520021
KSWW 280015Z AUTO 24013KT 10SM CLR 36/01 A2982 RMK AO2 T03570012
KSWW 272355Z AUTO 25011G16KT 10SM CLR 36/02 A2983 RMK AO2 T03620016 10377 20330
KSWW 272335Z AUTO 25011KT 10SM CLR 37/02 A2983 RMK AO2 T03660018


Page loaded:  11:32 UTC  |   04:32 AM Pacific  |   05:32 AM Mountain  |   06:32 AM Central  |   07:32 AM Eastern

 

ADVISORIES

FORECASTS

FORECASTS

OBSERVATIONS

USER TOOLS

ABOUT US